sensor_id;sensor_type;location;lat;lon;timestamp;P1;durP1;ratioP1;P2;durP2;ratioP2
22113;SDS011;11223;49.968;9.062;2022-07-22T00:01:35;10.05;;;9.18;;
22113;SDS011;11223;49.968;9.062;2022-07-22T00:04:01;11.05;;;10.30;;
22113;SDS011;11223;49.968;9.062;2022-07-22T00:06:27;10.88;;;10.07;;
22113;SDS011;11223;49.968;9.062;2022-07-22T00:08:53;11.98;;;10.98;;
22113;SDS011;11223;49.968;9.062;2022-07-22T00:11:19;11.68;;;10.77;;
22113;SDS011;11223;49.968;9.062;2022-07-22T00:13:45;10.60;;;9.82;;
22113;SDS011;11223;49.968;9.062;2022-07-22T00:16:11;11.53;;;10.63;;
22113;SDS011;11223;49.968;9.062;2022-07-22T00:18:37;10.57;;;9.73;;
22113;SDS011;11223;49.968;9.062;2022-07-22T00:21:02;11.53;;;10.70;;
22113;SDS011;11223;49.968;9.062;2022-07-22T00:23:28;11.55;;;10.65;;
22113;SDS011;11223;49.968;9.062;2022-07-22T00:25:54;11.83;;;10.93;;
22113;SDS011;11223;49.968;9.062;2022-07-22T00:28:20;10.80;;;10.00;;
22113;SDS011;11223;49.968;9.062;2022-07-22T00:30:45;11.47;;;10.77;;
22113;SDS011;11223;49.968;9.062;2022-07-22T00:33:11;10.37;;;9.47;;
22113;SDS011;11223;49.968;9.062;2022-07-22T00:35:36;10.57;;;9.90;;
22113;SDS011;11223;49.968;9.062;2022-07-22T00:38:02;11.90;;;11.17;;
22113;SDS011;11223;49.968;9.062;2022-07-22T00:40:28;11.75;;;10.75;;
22113;SDS011;11223;49.968;9.062;2022-07-22T00:42:53;11.10;;;10.40;;
22113;SDS011;11223;49.968;9.062;2022-07-22T00:45:19;10.57;;;9.87;;
22113;SDS011;11223;49.968;9.062;2022-07-22T00:47:45;11.27;;;10.50;;
22113;SDS011;11223;49.968;9.062;2022-07-22T00:50:11;11.90;;;10.73;;
22113;SDS011;11223;49.968;9.062;2022-07-22T00:52:36;11.27;;;10.43;;
22113;SDS011;11223;49.968;9.062;2022-07-22T00:55:03;11.38;;;10.50;;
22113;SDS011;11223;49.968;9.062;2022-07-22T00:57:31;12.40;;;11.40;;
22113;SDS011;11223;49.968;9.062;2022-07-22T00:59:57;12.73;;;11.63;;
22113;SDS011;11223;49.968;9.062;2022-07-22T01:02:23;12.40;;;11.50;;
22113;SDS011;11223;49.968;9.062;2022-07-22T01:04:49;12.13;;;11.37;;
22113;SDS011;11223;49.968;9.062;2022-07-22T01:07:14;12.30;;;11.40;;
22113;SDS011;11223;49.968;9.062;2022-07-22T01:09:44;12.77;;;11.87;;
22113;SDS011;11223;49.968;9.062;2022-07-22T01:12:10;12.05;;;11.13;;
22113;SDS011;11223;49.968;9.062;2022-07-22T01:14:36;11.57;;;10.57;;
22113;SDS011;11223;49.968;9.062;2022-07-22T01:17:02;12.17;;;11.27;;
22113;SDS011;11223;49.968;9.062;2022-07-22T01:19:28;13.10;;;12.00;;
22113;SDS011;11223;49.968;9.062;2022-07-22T01:21:53;11.73;;;10.73;;
22113;SDS011;11223;49.968;9.062;2022-07-22T01:24:19;11.23;;;10.37;;
22113;SDS011;11223;49.968;9.062;2022-07-22T01:26:45;11.90;;;11.13;;
22113;SDS011;11223;49.968;9.062;2022-07-22T01:29:11;12.47;;;11.60;;
22113;SDS011;11223;49.968;9.062;2022-07-22T01:31:36;11.53;;;10.73;;
22113;SDS011;11223;49.968;9.062;2022-07-22T01:34:02;12.40;;;11.60;;
22113;SDS011;11223;49.968;9.062;2022-07-22T01:36:28;12.30;;;11.40;;
22113;SDS011;11223;49.968;9.062;2022-07-22T01:38:54;12.57;;;11.63;;
22113;SDS011;11223;49.968;9.062;2022-07-22T01:41:20;11.67;;;10.87;;
22113;SDS011;11223;49.968;9.062;2022-07-22T01:43:46;12.70;;;11.60;;
22113;SDS011;11223;49.968;9.062;2022-07-22T01:46:11;12.50;;;11.50;;
22113;SDS011;11223;49.968;9.062;2022-07-22T01:48:37;11.20;;;10.43;;
22113;SDS011;11223;49.968;9.062;2022-07-22T01:51:03;12.68;;;11.70;;
22113;SDS011;11223;49.968;9.062;2022-07-22T01:53:29;11.93;;;10.70;;
22113;SDS011;11223;49.968;9.062;2022-07-22T01:55:55;11.50;;;10.70;;
22113;SDS011;11223;49.968;9.062;2022-07-22T01:58:20;12.10;;;11.10;;
22113;SDS011;11223;49.968;9.062;2022-07-22T02:00:46;12.47;;;11.53;;
22113;SDS011;11223;49.968;9.062;2022-07-22T02:03:11;12.77;;;11.77;;
22113;SDS011;11223;49.968;9.062;2022-07-22T02:05:37;14.00;;;12.80;;
22113;SDS011;11223;49.968;9.062;2022-07-22T02:08:04;12.82;;;11.93;;
22113;SDS011;11223;49.968;9.062;2022-07-22T02:10:31;12.95;;;11.98;;
22113;SDS011;11223;49.968;9.062;2022-07-22T02:12:57;13.43;;;12.52;;
22113;SDS011;11223;49.968;9.062;2022-07-22T02:15:24;12.90;;;11.88;;
22113;SDS011;11223;49.968;9.062;2022-07-22T02:17:50;12.20;;;11.40;;
22113;SDS011;11223;49.968;9.062;2022-07-22T02:20:16;13.30;;;12.40;;
22113;SDS011;11223;49.968;9.062;2022-07-22T02:22:41;12.80;;;12.00;;
22113;SDS011;11223;49.968;9.062;2022-07-22T02:25:07;13.57;;;12.47;;
22113;SDS011;11223;49.968;9.062;2022-07-22T02:27:33;12.73;;;11.93;;
22113;SDS011;11223;49.968;9.062;2022-07-22T02:29:59;12.70;;;11.73;;
22113;SDS011;11223;49.968;9.062;2022-07-22T02:32:25;13.37;;;12.30;;
22113;SDS011;11223;49.968;9.062;2022-07-22T02:34:50;12.17;;;11.37;;
22113;SDS011;11223;49.968;9.062;2022-07-22T02:37:16;13.00;;;12.03;;
22113;SDS011;11223;49.968;9.062;2022-07-22T02:39:41;13.20;;;12.27;;
22113;SDS011;11223;49.968;9.062;2022-07-22T02:42:07;14.53;;;13.20;;
22113;SDS011;11223;49.968;9.062;2022-07-22T02:44:33;12.80;;;11.93;;
22113;SDS011;11223;49.968;9.062;2022-07-22T02:46:58;13.43;;;12.60;;
22113;SDS011;11223;49.968;9.062;2022-07-22T02:49:24;13.30;;;12.30;;
22113;SDS011;11223;49.968;9.062;2022-07-22T02:51:50;13.40;;;12.40;;
22113;SDS011;11223;49.968;9.062;2022-07-22T02:54:15;13.37;;;12.43;;
22113;SDS011;11223;49.968;9.062;2022-07-22T02:56:41;14.90;;;13.70;;
22113;SDS011;11223;49.968;9.062;2022-07-22T02:59:06;13.60;;;12.60;;
22113;SDS011;11223;49.968;9.062;2022-07-22T03:01:32;14.23;;;13.10;;
22113;SDS011;11223;49.968;9.062;2022-07-22T03:03:58;14.83;;;13.60;;
22113;SDS011;11223;49.968;9.062;2022-07-22T03:06:23;14.90;;;13.90;;
22113;SDS011;11223;49.968;9.062;2022-07-22T03:08:49;15.47;;;14.30;;
22113;SDS011;11223;49.968;9.062;2022-07-22T03:11:15;15.00;;;13.87;;
22113;SDS011;11223;49.968;9.062;2022-07-22T03:13:40;14.30;;;13.30;;
22113;SDS011;11223;49.968;9.062;2022-07-22T03:16:06;14.00;;;13.00;;
22113;SDS011;11223;49.968;9.062;2022-07-22T03:18:31;14.13;;;13.23;;
22113;SDS011;11223;49.968;9.062;2022-07-22T03:20:58;15.10;;;14.00;;
22113;SDS011;11223;49.968;9.062;2022-07-22T03:23:24;15.60;;;14.40;;
22113;SDS011;11223;49.968;9.062;2022-07-22T03:25:49;14.80;;;13.80;;
22113;SDS011;11223;49.968;9.062;2022-07-22T03:28:15;13.03;;;12.23;;
22113;SDS011;11223;49.968;9.062;2022-07-22T03:30:40;14.30;;;13.40;;
22113;SDS011;11223;49.968;9.062;2022-07-22T03:33:06;14.90;;;13.90;;
22113;SDS011;11223;49.968;9.062;2022-07-22T03:35:32;14.83;;;13.67;;
22113;SDS011;11223;49.968;9.062;2022-07-22T03:37:57;14.83;;;13.63;;
22113;SDS011;11223;49.968;9.062;2022-07-22T03:40:23;13.93;;;12.90;;
22113;SDS011;11223;49.968;9.062;2022-07-22T03:42:48;14.37;;;13.30;;
22113;SDS011;11223;49.968;9.062;2022-07-22T03:45:14;13.73;;;12.67;;
22113;SDS011;11223;49.968;9.062;2022-07-22T03:47:40;15.43;;;14.43;;
22113;SDS011;11223;49.968;9.062;2022-07-22T03:50:06;14.90;;;13.80;;
22113;SDS011;11223;49.968;9.062;2022-07-22T03:52:32;14.40;;;13.25;;
22113;SDS011;11223;49.968;9.062;2022-07-22T03:54:57;14.30;;;13.37;;
22113;SDS011;11223;49.968;9.062;2022-07-22T03:57:23;15.00;;;14.00;;
22113;SDS011;11223;49.968;9.062;2022-07-22T03:59:49;15.40;;;14.20;;
22113;SDS011;11223;49.968;9.062;2022-07-22T04:02:14;14.67;;;13.67;;
22113;SDS011;11223;49.968;9.062;2022-07-22T04:04:40;13.67;;;12.47;;
22113;SDS011;11223;49.968;9.062;2022-07-22T04:07:05;14.63;;;13.37;;
22113;SDS011;11223;49.968;9.062;2022-07-22T04:09:31;15.27;;;14.07;;
22113;SDS011;11223;49.968;9.062;2022-07-22T04:11:56;15.23;;;13.93;;
22113;SDS011;11223;49.968;9.062;2022-07-22T04:14:22;14.07;;;13.17;;
22113;SDS011;11223;49.968;9.062;2022-07-22T04:16:48;14.83;;;13.83;;
22113;SDS011;11223;49.968;9.062;2022-07-22T04:19:13;14.63;;;13.70;;
22113;SDS011;11223;49.968;9.062;2022-07-22T04:21:39;13.70;;;12.70;;
22113;SDS011;11223;49.968;9.062;2022-07-22T04:24:05;13.67;;;12.53;;
22113;SDS011;11223;49.968;9.062;2022-07-22T04:26:31;13.82;;;12.93;;
22113;SDS011;11223;49.968;9.062;2022-07-22T04:28:57;12.97;;;12.03;;
22113;SDS011;11223;49.968;9.062;2022-07-22T04:31:23;14.10;;;13.20;;
22113;SDS011;11223;49.968;9.062;2022-07-22T04:33:48;13.33;;;12.13;;
22113;SDS011;11223;49.968;9.062;2022-07-22T04:36:14;14.13;;;13.00;;
22113;SDS011;11223;49.968;9.062;2022-07-22T04:38:39;14.03;;;13.00;;
22113;SDS011;11223;49.968;9.062;2022-07-22T04:41:05;12.87;;;11.77;;
22113;SDS011;11223;49.968;9.062;2022-07-22T04:43:31;13.97;;;13.07;;
22113;SDS011;11223;49.968;9.062;2022-07-22T04:45:56;13.70;;;12.57;;
22113;SDS011;11223;49.968;9.062;2022-07-22T04:48:22;13.40;;;12.40;;
22113;SDS011;11223;49.968;9.062;2022-07-22T04:50:48;14.00;;;12.83;;
22113;SDS011;11223;49.968;9.062;2022-07-22T04:53:14;12.87;;;12.07;;
22113;SDS011;11223;49.968;9.062;2022-07-22T04:55:39;13.50;;;12.50;;
22113;SDS011;11223;49.968;9.062;2022-07-22T04:58:05;12.27;;;11.40;;
22113;SDS011;11223;49.968;9.062;2022-07-22T05:00:31;12.07;;;11.27;;
22113;SDS011;11223;49.968;9.062;2022-07-22T05:02:56;12.50;;;11.60;;
22113;SDS011;11223;49.968;9.062;2022-07-22T05:05:22;12.40;;;11.50;;
22113;SDS011;11223;49.968;9.062;2022-07-22T05:07:49;12.18;;;11.38;;
22113;SDS011;11223;49.968;9.062;2022-07-22T05:10:15;12.20;;;11.30;;
22113;SDS011;11223;49.968;9.062;2022-07-22T05:12:41;12.67;;;11.60;;
22113;SDS011;11223;49.968;9.062;2022-07-22T05:15:07;12.50;;;11.70;;
22113;SDS011;11223;49.968;9.062;2022-07-22T05:17:33;11.15;;;10.45;;
22113;SDS011;11223;49.968;9.062;2022-07-22T05:19:58;11.63;;;10.73;;
22113;SDS011;11223;49.968;9.062;2022-07-22T05:22:24;10.60;;;9.80;;
22113;SDS011;11223;49.968;9.062;2022-07-22T05:24:50;11.63;;;10.73;;
22113;SDS011;11223;49.968;9.062;2022-07-22T05:27:16;11.23;;;10.27;;
22113;SDS011;11223;49.968;9.062;2022-07-22T05:29:41;11.00;;;10.00;;
22113;SDS011;11223;49.968;9.062;2022-07-22T05:32:07;12.70;;;11.70;;
22113;SDS011;11223;49.968;9.062;2022-07-22T05:34:33;10.53;;;9.77;;
22113;SDS011;11223;49.968;9.062;2022-07-22T05:36:58;11.47;;;10.50;;
22113;SDS011;11223;49.968;9.062;2022-07-22T05:39:24;10.33;;;9.63;;
22113;SDS011;11223;49.968;9.062;2022-07-22T05:41:49;9.47;;;8.87;;
22113;SDS011;11223;49.968;9.062;2022-07-22T05:44:15;10.43;;;9.73;;
22113;SDS011;11223;49.968;9.062;2022-07-22T05:46:40;10.10;;;9.40;;
22113;SDS011;11223;49.968;9.062;2022-07-22T05:49:06;10.33;;;9.63;;
22113;SDS011;11223;49.968;9.062;2022-07-22T05:51:32;10.80;;;10.00;;
22113;SDS011;11223;49.968;9.062;2022-07-22T05:53:59;10.00;;;9.38;;
22113;SDS011;11223;49.968;9.062;2022-07-22T05:56:27;9.82;;;9.00;;
22113;SDS011;11223;49.968;9.062;2022-07-22T05:58:53;13.20;;;11.90;;
22113;SDS011;11223;49.968;9.062;2022-07-22T06:01:21;12.60;;;11.65;;
22113;SDS011;11223;49.968;9.062;2022-07-22T06:03:46;14.60;;;13.25;;
22113;SDS011;11223;49.968;9.062;2022-07-22T06:06:12;8.97;;;8.27;;
22113;SDS011;11223;49.968;9.062;2022-07-22T06:08:38;10.10;;;9.18;;
22113;SDS011;11223;49.968;9.062;2022-07-22T06:11:04;9.70;;;9.10;;
22113;SDS011;11223;49.968;9.062;2022-07-22T06:13:30;11.40;;;10.40;;
22113;SDS011;11223;49.968;9.062;2022-07-22T06:15:57;12.77;;;11.77;;
22113;SDS011;11223;49.968;9.062;2022-07-22T06:18:23;12.95;;;11.85;;
22113;SDS011;11223;49.968;9.062;2022-07-22T06:20:48;9.63;;;8.97;;
22113;SDS011;11223;49.968;9.062;2022-07-22T06:23:14;12.57;;;11.67;;
22113;SDS011;11223;49.968;9.062;2022-07-22T06:25:39;12.70;;;11.80;;
22113;SDS011;11223;49.968;9.062;2022-07-22T06:28:05;10.90;;;10.10;;
22113;SDS011;11223;49.968;9.062;2022-07-22T06:30:31;9.17;;;8.50;;
22113;SDS011;11223;49.968;9.062;2022-07-22T06:32:56;9.60;;;8.83;;
22113;SDS011;11223;49.968;9.062;2022-07-22T06:35:22;9.33;;;8.53;;
22113;SDS011;11223;49.968;9.062;2022-07-22T06:37:51;9.10;;;8.40;;
22113;SDS011;11223;49.968;9.062;2022-07-22T06:40:17;8.82;;;8.02;;
22113;SDS011;11223;49.968;9.062;2022-07-22T06:42:43;9.07;;;8.53;;
22113;SDS011;11223;49.968;9.062;2022-07-22T06:45:09;8.13;;;7.43;;
22113;SDS011;11223;49.968;9.062;2022-07-22T06:47:34;9.20;;;8.40;;
22113;SDS011;11223;49.968;9.062;2022-07-22T06:50:04;8.93;;;8.33;;
22113;SDS011;11223;49.968;9.062;2022-07-22T06:52:31;7.60;;;7.00;;
22113;SDS011;11223;49.968;9.062;2022-07-22T06:54:57;9.00;;;8.20;;
22113;SDS011;11223;49.968;9.062;2022-07-22T06:57:23;7.60;;;7.10;;
22113;SDS011;11223;49.968;9.062;2022-07-22T06:59:49;7.63;;;7.07;;
22113;SDS011;11223;49.968;9.062;2022-07-22T07:02:15;8.27;;;7.68;;
22113;SDS011;11223;49.968;9.062;2022-07-22T07:04:40;7.07;;;6.67;;
22113;SDS011;11223;49.968;9.062;2022-07-22T07:07:06;7.10;;;6.60;;
22113;SDS011;11223;49.968;9.062;2022-07-22T07:09:32;6.90;;;6.45;;
22113;SDS011;11223;49.968;9.062;2022-07-22T07:11:58;8.00;;;7.30;;
22113;SDS011;11223;49.968;9.062;2022-07-22T07:14:24;8.10;;;7.50;;
22113;SDS011;11223;49.968;9.062;2022-07-22T07:16:49;8.10;;;7.50;;
22113;SDS011;11223;49.968;9.062;2022-07-22T07:19:16;8.63;;;7.82;;
22113;SDS011;11223;49.968;9.062;2022-07-22T07:21:42;8.77;;;7.53;;
22113;SDS011;11223;49.968;9.062;2022-07-22T07:24:07;6.63;;;6.23;;
22113;SDS011;11223;49.968;9.062;2022-07-22T07:26:33;8.87;;;8.20;;
22113;SDS011;11223;49.968;9.062;2022-07-22T07:28:59;7.82;;;7.32;;
22113;SDS011;11223;49.968;9.062;2022-07-22T07:31:25;6.80;;;6.27;;
22113;SDS011;11223;49.968;9.062;2022-07-22T07:33:51;7.13;;;6.63;;
22113;SDS011;11223;49.968;9.062;2022-07-22T07:36:19;7.00;;;6.50;;
22113;SDS011;11223;49.968;9.062;2022-07-22T07:38:45;7.30;;;6.70;;
22113;SDS011;11223;49.968;9.062;2022-07-22T07:41:11;6.57;;;6.10;;
22113;SDS011;11223;49.968;9.062;2022-07-22T07:43:36;7.40;;;6.90;;
22113;SDS011;11223;49.968;9.062;2022-07-22T07:46:02;6.97;;;6.47;;
22113;SDS011;11223;49.968;9.062;2022-07-22T07:48:28;7.00;;;6.60;;
22113;SDS011;11223;49.968;9.062;2022-07-22T07:50:54;7.17;;;6.67;;
22113;SDS011;11223;49.968;9.062;2022-07-22T07:53:19;7.77;;;7.17;;
22113;SDS011;11223;49.968;9.062;2022-07-22T07:55:45;7.03;;;6.33;;
22113;SDS011;11223;49.968;9.062;2022-07-22T07:58:11;6.73;;;6.13;;
22113;SDS011;11223;49.968;9.062;2022-07-22T08:00:36;6.80;;;6.27;;
22113;SDS011;11223;49.968;9.062;2022-07-22T08:03:03;7.30;;;6.82;;
22113;SDS011;11223;49.968;9.062;2022-07-22T08:05:30;7.13;;;6.63;;
22113;SDS011;11223;49.968;9.062;2022-07-22T08:07:56;6.10;;;5.70;;
22113;SDS011;11223;49.968;9.062;2022-07-22T08:10:21;6.47;;;6.07;;
22113;SDS011;11223;49.968;9.062;2022-07-22T08:12:47;6.83;;;6.30;;
22113;SDS011;11223;49.968;9.062;2022-07-22T08:15:14;8.35;;;6.57;;
22113;SDS011;11223;49.968;9.062;2022-07-22T08:17:40;8.48;;;6.90;;
22113;SDS011;11223;49.968;9.062;2022-07-22T08:20:06;6.80;;;6.40;;
22113;SDS011;11223;49.968;9.062;2022-07-22T08:22:33;7.15;;;6.65;;
22113;SDS011;11223;49.968;9.062;2022-07-22T08:24:59;7.10;;;6.60;;
22113;SDS011;11223;49.968;9.062;2022-07-22T08:27:24;6.57;;;6.17;;
22113;SDS011;11223;49.968;9.062;2022-07-22T08:29:50;7.10;;;6.60;;
22113;SDS011;11223;49.968;9.062;2022-07-22T08:32:15;8.03;;;6.77;;
22113;SDS011;11223;49.968;9.062;2022-07-22T08:34:41;7.43;;;6.77;;
22113;SDS011;11223;49.968;9.062;2022-07-22T08:37:07;8.50;;;7.90;;
22113;SDS011;11223;49.968;9.062;2022-07-22T08:39:32;7.17;;;6.67;;
22113;SDS011;11223;49.968;9.062;2022-07-22T08:41:59;7.80;;;7.00;;
22113;SDS011;11223;49.968;9.062;2022-07-22T08:44:28;7.80;;;7.20;;
22113;SDS011;11223;49.968;9.062;2022-07-22T08:46:55;6.57;;;6.18;;
22113;SDS011;11223;49.968;9.062;2022-07-22T08:49:21;8.77;;;7.87;;
22113;SDS011;11223;49.968;9.062;2022-07-22T08:51:47;7.97;;;7.27;;
22113;SDS011;11223;49.968;9.062;2022-07-22T08:54:12;7.20;;;6.60;;
22113;SDS011;11223;49.968;9.062;2022-07-22T08:56:38;7.63;;;7.07;;
22113;SDS011;11223;49.968;9.062;2022-07-22T08:59:04;6.93;;;6.50;;
22113;SDS011;11223;49.968;9.062;2022-07-22T09:01:30;7.80;;;7.30;;
22113;SDS011;11223;49.968;9.062;2022-07-22T09:03:56;7.37;;;6.77;;
22113;SDS011;11223;49.968;9.062;2022-07-22T09:06:23;7.15;;;6.57;;
22113;SDS011;11223;49.968;9.062;2022-07-22T09:08:50;7.65;;;7.15;;
22113;SDS011;11223;49.968;9.062;2022-07-22T09:11:17;6.95;;;6.45;;
22113;SDS011;11223;49.968;9.062;2022-07-22T09:13:45;6.88;;;6.30;;
22113;SDS011;11223;49.968;9.062;2022-07-22T09:16:10;7.90;;;7.40;;
22113;SDS011;11223;49.968;9.062;2022-07-22T09:18:46;6.80;;;6.23;;
22113;SDS011;11223;49.968;9.062;2022-07-22T09:21:16;6.80;;;6.40;;
22113;SDS011;11223;49.968;9.062;2022-07-22T09:23:42;6.72;;;6.22;;
22113;SDS011;11223;49.968;9.062;2022-07-22T09:26:08;8.27;;;7.68;;
22113;SDS011;11223;49.968;9.062;2022-07-22T09:28:56;6.95;;;6.50;;
22113;SDS011;11223;49.968;9.062;2022-07-22T09:31:24;6.82;;;6.43;;
22113;SDS011;11223;49.968;9.062;2022-07-22T09:33:50;6.38;;;5.97;;
22113;SDS011;11223;49.968;9.062;2022-07-22T09:36:18;7.60;;;6.95;;
22113;SDS011;11223;49.968;9.062;2022-07-22T09:38:44;7.03;;;6.63;;
22113;SDS011;11223;49.968;9.062;2022-07-22T09:41:10;6.77;;;6.27;;
22113;SDS011;11223;49.968;9.062;2022-07-22T09:43:35;7.53;;;7.00;;
22113;SDS011;11223;49.968;9.062;2022-07-22T09:46:01;7.37;;;6.87;;
22113;SDS011;11223;49.968;9.062;2022-07-22T09:48:29;6.15;;;5.75;;
22113;SDS011;11223;49.968;9.062;2022-07-22T09:50:55;8.50;;;6.47;;
22113;SDS011;11223;49.968;9.062;2022-07-22T09:53:23;6.82;;;6.22;;
22113;SDS011;11223;49.968;9.062;2022-07-22T09:55:50;5.72;;;5.32;;
22113;SDS011;11223;49.968;9.062;2022-07-22T09:58:16;6.57;;;6.17;;
22113;SDS011;11223;49.968;9.062;2022-07-22T10:00:42;7.30;;;6.67;;
22113;SDS011;11223;49.968;9.062;2022-07-22T10:03:11;7.30;;;6.80;;
22113;SDS011;11223;49.968;9.062;2022-07-22T10:05:38;7.47;;;6.97;;
22113;SDS011;11223;49.968;9.062;2022-07-22T10:08:06;7.30;;;6.80;;
22113;SDS011;11223;49.968;9.062;2022-07-22T10:10:33;6.13;;;5.55;;
22113;SDS011;11223;49.968;9.062;2022-07-22T10:13:02;8.15;;;7.07;;
22113;SDS011;11223;49.968;9.062;2022-07-22T10:15:29;7.50;;;6.90;;
22113;SDS011;11223;49.968;9.062;2022-07-22T10:17:57;6.77;;;6.30;;
22113;SDS011;11223;49.968;9.062;2022-07-22T10:20:26;6.63;;;6.10;;
22113;SDS011;11223;49.968;9.062;2022-07-22T10:25:21;6.40;;;6.00;;
22113;SDS011;11223;49.968;9.062;2022-07-22T10:27:57;7.00;;;6.47;;
22113;SDS011;11223;49.968;9.062;2022-07-22T10:30:25;6.22;;;5.80;;
22113;SDS011;11223;49.968;9.062;2022-07-22T10:35:38;7.20;;;6.70;;
22113;SDS011;11223;49.968;9.062;2022-07-22T10:38:22;6.23;;;5.73;;
22113;SDS011;11223;49.968;9.062;2022-07-22T10:40:49;6.27;;;5.87;;
22113;SDS011;11223;49.968;9.062;2022-07-22T10:43:16;6.70;;;6.30;;
22113;SDS011;11223;49.968;9.062;2022-07-22T10:45:47;6.37;;;5.97;;
22113;SDS011;11223;49.968;9.062;2022-07-22T10:48:18;6.60;;;6.10;;
22113;SDS011;11223;49.968;9.062;2022-07-22T10:50:46;6.30;;;5.90;;
22113;SDS011;11223;49.968;9.062;2022-07-22T10:53:21;6.00;;;5.60;;
22113;SDS011;11223;49.968;9.062;2022-07-22T11:01:06;6.37;;;5.87;;
22113;SDS011;11223;49.968;9.062;2022-07-22T11:03:34;5.80;;;5.30;;
22113;SDS011;11223;49.968;9.062;2022-07-22T11:08:48;6.50;;;6.00;;
22113;SDS011;11223;49.968;9.062;2022-07-22T11:16:39;5.40;;;5.00;;
22113;SDS011;11223;49.968;9.062;2022-07-22T11:19:05;5.73;;;5.33;;
22113;SDS011;11223;49.968;9.062;2022-07-22T11:21:32;5.53;;;5.03;;
22113;SDS011;11223;49.968;9.062;2022-07-22T11:23:59;5.70;;;5.20;;
22113;SDS011;11223;49.968;9.062;2022-07-22T11:26:41;5.90;;;5.50;;
22113;SDS011;11223;49.968;9.062;2022-07-22T11:29:10;6.57;;;5.93;;
22113;SDS011;11223;49.968;9.062;2022-07-22T11:31:41;6.93;;;6.33;;
22113;SDS011;11223;49.968;9.062;2022-07-22T11:34:08;6.20;;;5.70;;
22113;SDS011;11223;49.968;9.062;2022-07-22T11:36:36;5.70;;;5.30;;
22113;SDS011;11223;49.968;9.062;2022-07-22T11:39:04;6.07;;;5.77;;
22113;SDS011;11223;49.968;9.062;2022-07-22T11:41:31;6.37;;;5.97;;
22113;SDS011;11223;49.968;9.062;2022-07-22T11:43:57;5.50;;;5.10;;
22113;SDS011;11223;49.968;9.062;2022-07-22T11:46:24;6.30;;;5.90;;
22113;SDS011;11223;49.968;9.062;2022-07-22T11:48:51;5.80;;;5.50;;
22113;SDS011;11223;49.968;9.062;2022-07-22T11:51:18;5.23;;;4.93;;
22113;SDS011;11223;49.968;9.062;2022-07-22T11:53:43;6.40;;;5.90;;
22113;SDS011;11223;49.968;9.062;2022-07-22T11:56:10;6.00;;;5.50;;
22113;SDS011;11223;49.968;9.062;2022-07-22T11:58:43;6.63;;;6.07;;
22113;SDS011;11223;49.968;9.062;2022-07-22T12:01:14;5.83;;;5.43;;
22113;SDS011;11223;49.968;9.062;2022-07-22T12:03:44;6.60;;;6.00;;
22113;SDS011;11223;49.968;9.062;2022-07-22T12:06:13;7.17;;;6.40;;
22113;SDS011;11223;49.968;9.062;2022-07-22T12:08:41;6.00;;;5.50;;
22113;SDS011;11223;49.968;9.062;2022-07-22T12:11:09;5.97;;;5.50;;
22113;SDS011;11223;49.968;9.062;2022-07-22T12:13:36;6.17;;;5.67;;
22113;SDS011;11223;49.968;9.062;2022-07-22T12:16:20;6.10;;;5.70;;
22113;SDS011;11223;49.968;9.062;2022-07-22T12:19:13;7.50;;;6.93;;
22113;SDS011;11223;49.968;9.062;2022-07-22T12:21:52;6.67;;;6.00;;
22113;SDS011;11223;49.968;9.062;2022-07-22T12:26:52;6.73;;;6.10;;
22113;SDS011;11223;49.968;9.062;2022-07-22T12:29:28;6.73;;;6.23;;
22113;SDS011;11223;49.968;9.062;2022-07-22T12:31:59;6.67;;;6.17;;
22113;SDS011;11223;49.968;9.062;2022-07-22T12:34:31;7.80;;;6.23;;
22113;SDS011;11223;49.968;9.062;2022-07-22T12:36:57;7.80;;;6.63;;
22113;SDS011;11223;49.968;9.062;2022-07-22T12:39:22;7.40;;;6.77;;
22113;SDS011;11223;49.968;9.062;2022-07-22T12:41:52;6.40;;;6.00;;
22113;SDS011;11223;49.968;9.062;2022-07-22T12:44:24;6.50;;;6.10;;
22113;SDS011;11223;49.968;9.062;2022-07-22T12:46:52;6.83;;;6.33;;
22113;SDS011;11223;49.968;9.062;2022-07-22T12:49:22;6.97;;;6.47;;
22113;SDS011;11223;49.968;9.062;2022-07-22T12:52:11;6.63;;;6.10;;
22113;SDS011;11223;49.968;9.062;2022-07-22T12:54:38;6.70;;;6.20;;
22113;SDS011;11223;49.968;9.062;2022-07-22T12:57:06;7.30;;;6.70;;
22113;SDS011;11223;49.968;9.062;2022-07-22T12:59:33;8.60;;;6.00;;
22113;SDS011;11223;49.968;9.062;2022-07-22T13:01:59;6.43;;;5.93;;
22113;SDS011;11223;49.968;9.062;2022-07-22T13:04:25;6.67;;;6.13;;
22113;SDS011;11223;49.968;9.062;2022-07-22T13:06:50;6.60;;;6.10;;
22113;SDS011;11223;49.968;9.062;2022-07-22T13:09:16;7.50;;;6.90;;
22113;SDS011;11223;49.968;9.062;2022-07-22T13:11:42;7.43;;;6.93;;
22113;SDS011;11223;49.968;9.062;2022-07-22T13:14:11;7.03;;;6.63;;
22113;SDS011;11223;49.968;9.062;2022-07-22T13:16:37;6.93;;;6.53;;
22113;SDS011;11223;49.968;9.062;2022-07-22T13:19:03;7.07;;;6.47;;
22113;SDS011;11223;49.968;9.062;2022-07-22T13:21:29;7.37;;;5.73;;
22113;SDS011;11223;49.968;9.062;2022-07-22T13:23:54;7.37;;;6.87;;
22113;SDS011;11223;49.968;9.062;2022-07-22T13:26:20;7.43;;;6.47;;
22113;SDS011;11223;49.968;9.062;2022-07-22T13:28:46;7.17;;;6.70;;
22113;SDS011;11223;49.968;9.062;2022-07-22T13:31:11;6.17;;;5.77;;
22113;SDS011;11223;49.968;9.062;2022-07-22T13:33:37;7.77;;;7.17;;
22113;SDS011;11223;49.968;9.062;2022-07-22T13:36:03;6.70;;;6.20;;
22113;SDS011;11223;49.968;9.062;2022-07-22T13:38:29;6.90;;;6.40;;
22113;SDS011;11223;49.968;9.062;2022-07-22T13:40:55;6.93;;;6.37;;
22113;SDS011;11223;49.968;9.062;2022-07-22T13:43:23;7.20;;;6.70;;
22113;SDS011;11223;49.968;9.062;2022-07-22T13:45:49;7.00;;;6.50;;
22113;SDS011;11223;49.968;9.062;2022-07-22T13:48:16;7.47;;;6.97;;
22113;SDS011;11223;49.968;9.062;2022-07-22T13:50:45;7.40;;;6.93;;
22113;SDS011;11223;49.968;9.062;2022-07-22T13:53:11;8.60;;;6.80;;
22113;SDS011;11223;49.968;9.062;2022-07-22T13:55:38;7.73;;;7.13;;
22113;SDS011;11223;49.968;9.062;2022-07-22T13:58:04;7.20;;;6.70;;
22113;SDS011;11223;49.968;9.062;2022-07-22T14:00:30;6.97;;;6.53;;
22113;SDS011;11223;49.968;9.062;2022-07-22T14:02:55;6.43;;;6.03;;
22113;SDS011;11223;49.968;9.062;2022-07-22T14:05:21;7.30;;;6.77;;
22113;SDS011;11223;49.968;9.062;2022-07-22T14:07:47;7.37;;;6.77;;
22113;SDS011;11223;49.968;9.062;2022-07-22T14:10:13;6.27;;;5.77;;
22113;SDS011;11223;49.968;9.062;2022-07-22T14:12:39;6.97;;;6.57;;
22113;SDS011;11223;49.968;9.062;2022-07-22T14:15:05;7.53;;;6.60;;
22113;SDS011;11223;49.968;9.062;2022-07-22T14:17:32;6.93;;;6.43;;
22113;SDS011;11223;49.968;9.062;2022-07-22T14:19:58;7.37;;;6.77;;
22113;SDS011;11223;49.968;9.062;2022-07-22T14:22:24;6.87;;;6.40;;
22113;SDS011;11223;49.968;9.062;2022-07-22T14:24:50;7.43;;;6.73;;
22113;SDS011;11223;49.968;9.062;2022-07-22T14:27:16;6.40;;;5.90;;
22113;SDS011;11223;49.968;9.062;2022-07-22T14:29:42;7.10;;;6.60;;
22113;SDS011;11223;49.968;9.062;2022-07-22T14:32:07;7.00;;;6.47;;
22113;SDS011;11223;49.968;9.062;2022-07-22T14:34:33;7.17;;;6.73;;
22113;SDS011;11223;49.968;9.062;2022-07-22T14:36:58;6.63;;;6.13;;
22113;SDS011;11223;49.968;9.062;2022-07-22T14:39:24;6.13;;;5.63;;
22113;SDS011;11223;49.968;9.062;2022-07-22T14:41:50;6.70;;;6.20;;
22113;SDS011;11223;49.968;9.062;2022-07-22T14:44:15;6.90;;;6.43;;
22113;SDS011;11223;49.968;9.062;2022-07-22T14:46:41;6.93;;;6.43;;
22113;SDS011;11223;49.968;9.062;2022-07-22T14:49:06;6.87;;;6.33;;
22113;SDS011;11223;49.968;9.062;2022-07-22T14:51:32;6.30;;;5.90;;
22113;SDS011;11223;49.968;9.062;2022-07-22T14:53:57;6.30;;;5.90;;